createdAt,value
2018-06-02T04:03:46.283Z,10
2018-06-02T04:04:06.459Z,10
2018-06-02T04:11:13.410Z,10
2018-06-02T04:11:33.601Z,15
2018-06-02T04:11:53.780Z,15
2018-06-02T04:14:18.698Z,15
2018-06-02T04:14:38.896Z,15
2018-06-02T04:29:53.253Z,20
2018-06-02T04:30:13.396Z,20
2018-06-02T04:31:09.289Z,20
2018-06-02T04:34:00.987Z,20
2018-06-02T04:34:21.120Z,20
2018-06-02T04:36:48.258Z,20
2018-06-02T04:37:08.396Z,20
2018-06-02T04:39:10.701Z,20
2018-06-02T04:39:30.848Z,20
2018-06-02T04:41:45.458Z,20
2018-06-02T04:42:05.606Z,20
2018-06-02T04:42:25.902Z,20
2018-06-02T04:42:46.071Z,20
2018-06-02T04:43:06.249Z,20
2018-06-02T04:44:24.768Z,20
2018-06-02T04:44:44.936Z,20
2018-06-02T04:45:05.115Z,20
2018-06-02T04:46:28.719Z,20
2018-06-02T04:46:48.872Z,20
2018-06-02T04:47:42.997Z,25
2018-06-02T04:48:03.154Z,20
2018-06-02T04:48:23.317Z,25
2018-06-02T04:48:43.462Z,20
2018-06-02T04:49:03.603Z,25
2018-06-02T04:50:12.009Z,25
2018-06-02T04:50:32.177Z,25
2018-06-02T04:50:52.349Z,25
2018-06-02T04:51:12.523Z,25
2018-06-02T04:51:32.676Z,25
2018-06-02T04:51:52.835Z,25
2018-06-02T04:52:12.994Z,25
2018-06-02T04:52:33.159Z,25
2018-06-02T04:52:53.297Z,25
2018-06-02T04:53:13.443Z,25
2018-06-02T04:53:33.633Z,25
2018-06-02T04:53:53.809Z,25
2018-06-02T04:54:13.966Z,25
2018-06-02T04:54:34.133Z,25
2018-06-02T04:54:54.311Z,25
2018-06-02T04:57:57.783Z,30
2018-06-02T04:58:17.939Z,30
2018-06-02T04:58:38.099Z,30
2018-06-02T04:58:58.265Z,30
2018-06-02T04:59:18.426Z,30
2018-06-02T04:59:38.583Z,30
2018-06-02T04:59:58.743Z,30
2018-06-02T05:00:18.903Z,30
2018-06-02T05:00:39.057Z,30
2018-06-02T05:00:59.222Z,30
2018-06-02T05:01:19.392Z,30
2018-06-02T05:01:39.549Z,30
2018-06-02T05:01:59.713Z,30
2018-06-02T05:02:19.872Z,30
2018-06-02T05:02:40.050Z,30
2018-06-02T05:03:00.213Z,30
2018-06-02T05:03:20.365Z,30
2018-06-02T05:03:40.511Z,30
2018-06-02T05:04:00.813Z,30
2018-06-02T05:04:20.964Z,30
2018-06-02T05:04:41.068Z,30
2018-06-02T05:05:01.244Z,30
2018-06-02T05:05:21.408Z,30
2018-06-02T05:05:41.554Z,30
2018-06-02T05:06:01.698Z,30
2018-06-02T05:06:21.864Z,30
2018-06-02T05:06:42.021Z,30
2018-06-02T05:07:02.159Z,30
2018-06-02T05:07:22.307Z,30
2018-06-02T05:07:42.443Z,30
2018-06-02T05:08:02.635Z,30
2018-06-02T05:08:22.787Z,30
2018-06-02T05:08:42.939Z,30
2018-06-02T05:09:03.096Z,30
2018-06-02T05:09:23.268Z,30
2018-06-02T05:09:43.432Z,30
2018-06-02T05:10:03.602Z,30
2018-06-02T05:10:23.777Z,30
2018-06-02T05:10:43.934Z,30
2018-06-02T05:11:04.097Z,30
2018-06-02T05:11:24.245Z,30
2018-06-02T05:11:44.401Z,30
2018-06-02T05:12:04.539Z,30
2018-06-02T05:12:24.754Z,35
2018-06-02T05:12:44.951Z,35
2018-06-02T05:13:05.138Z,35
2018-06-02T05:13:25.287Z,35
2018-06-02T05:13:45.565Z,35
2018-06-02T05:14:05.733Z,35
2018-06-02T05:14:25.874Z,35
2018-06-02T05:14:46.052Z,35
2018-06-02T05:15:06.268Z,35
2018-06-02T05:15:26.414Z,35
2018-06-02T05:15:46.611Z,35
2018-06-02T05:16:06.794Z,35
2018-06-02T05:16:26.944Z,35
2018-06-02T05:16:47.096Z,35
2018-06-02T05:17:07.272Z,35
2018-06-02T05:17:27.425Z,35
2018-06-02T05:17:47.623Z,35
2018-06-02T05:18:07.784Z,35
2018-06-02T05:18:27.943Z,35
2018-06-02T05:18:48.146Z,35
2018-06-02T05:19:08.325Z,35
2018-06-02T05:19:28.463Z,35
2018-06-02T05:19:48.617Z,35
2018-06-02T05:20:08.816Z,35
2018-06-02T05:20:28.968Z,35
2018-06-02T05:20:49.148Z,35
2018-06-02T05:21:09.323Z,35
2018-06-02T05:21:29.485Z,35
2018-06-02T05:21:49.709Z,35
2018-06-02T05:22:09.894Z,35
2018-06-02T05:22:30.066Z,35
2018-06-02T05:22:50.246Z,35
2018-06-02T05:23:10.463Z,35
2018-06-02T05:23:30.598Z,35
2018-06-02T05:23:50.790Z,40
2018-06-02T05:24:11.019Z,40
2018-06-02T05:24:31.173Z,40
2018-06-02T05:24:51.318Z,35
2018-06-02T05:25:11.477Z,35
2018-06-02T05:25:31.619Z,35
2018-06-02T05:25:51.843Z,35
2018-06-02T05:26:11.987Z,35
2018-06-02T05:26:32.140Z,35
2018-06-02T05:26:52.299Z,35
2018-06-02T05:27:12.455Z,35
2018-06-02T05:27:32.619Z,35
2018-06-02T05:27:52.776Z,35
2018-06-02T05:28:12.919Z,35
2018-06-02T05:28:33.071Z,35
2018-06-02T05:28:53.246Z,35
2018-06-02T05:29:13.460Z,35
2018-06-02T05:29:33.559Z,35
2018-06-02T05:29:53.716Z,35
2018-06-02T05:30:13.871Z,35
2018-06-02T05:30:36.070Z,40
2018-06-02T05:30:56.376Z,40
2018-06-02T05:31:16.539Z,40
2018-06-02T05:31:36.702Z,40
2018-06-02T05:31:56.861Z,40
2018-06-02T05:32:17.023Z,40
2018-06-02T05:32:37.190Z,40
2018-06-02T05:32:58.330Z,40
2018-06-02T05:33:18.478Z,40
2018-06-02T05:33:38.639Z,40
2018-06-02T05:33:58.874Z,40
2018-06-02T05:34:19.031Z,40
2018-06-02T05:34:39.177Z,40
2018-06-02T05:34:59.322Z,40
2018-06-02T05:35:19.572Z,40
2018-06-02T05:35:39.741Z,40
2018-06-02T05:35:59.919Z,40
2018-06-02T05:36:20.110Z,40
2018-06-02T05:36:40.267Z,40
2018-06-02T05:37:00.437Z,40
2018-06-02T05:37:20.569Z,40
2018-06-02T05:37:40.741Z,40
2018-06-02T05:38:00.965Z,40
2018-06-02T05:38:21.117Z,40
2018-06-02T05:38:41.270Z,40
2018-06-02T05:39:01.459Z,40
2018-06-02T05:39:21.697Z,40
2018-06-02T05:39:41.813Z,40
2018-06-02T05:40:01.997Z,40
2018-06-02T05:40:22.152Z,40
2018-06-02T05:40:42.373Z,40
2018-06-02T05:41:02.555Z,40
2018-06-02T05:41:22.713Z,40
2018-06-02T05:41:42.860Z,40
2018-06-02T05:42:03.016Z,45
2018-06-02T05:42:23.167Z,45
2018-06-02T05:42:43.323Z,45
2018-06-02T05:43:03.493Z,45
2018-06-02T05:43:23.660Z,45
2018-06-02T05:43:43.822Z,45
2018-06-02T05:44:03.990Z,45
2018-06-02T05:44:24.131Z,45
2018-06-02T05:44:44.286Z,45
2018-06-02T05:45:04.435Z,45
2018-06-02T05:45:24.582Z,45
2018-06-02T05:45:44.738Z,45
2018-06-02T05:46:04.915Z,45
2018-06-02T05:46:25.085Z,45
2018-06-02T05:46:45.243Z,45
2018-06-02T05:47:05.413Z,45
2018-06-02T05:47:25.617Z,45
2018-06-02T05:47:45.791Z,45
2018-06-02T05:48:05.944Z,45
2018-06-02T05:48:26.117Z,45
2018-06-02T05:48:46.327Z,45
2018-06-02T05:49:06.484Z,45
2018-06-02T05:49:26.612Z,45
2018-06-02T05:49:46.755Z,45
2018-06-02T05:50:06.942Z,45
2018-06-02T05:50:27.084Z,45
2018-06-02T05:50:47.310Z,45
2018-06-02T05:51:07.481Z,45
2018-06-02T05:51:27.643Z,45
2018-06-02T05:51:47.888Z,45
2018-06-02T05:52:08.043Z,45
2018-06-02T05:52:28.205Z,45
2018-06-02T05:52:48.383Z,45
2018-06-02T05:53:08.527Z,45
2018-06-02T05:53:28.685Z,45
2018-06-02T05:53:48.859Z,45
2018-06-02T05:54:09.031Z,45
2018-06-02T05:54:29.189Z,45
2018-06-02T05:54:49.337Z,45
2018-06-02T05:55:09.573Z,40
2018-06-02T05:55:29.680Z,40
2018-06-02T05:55:49.827Z,40
2018-06-02T05:56:09.985Z,40
2018-06-02T05:56:30.146Z,40
2018-06-02T05:56:50.300Z,40
2018-06-02T05:57:10.455Z,40
2018-06-02T05:57:30.642Z,40
2018-06-02T05:57:50.792Z,40
2018-06-02T05:58:10.944Z,40
2018-06-02T05:58:31.087Z,40
2018-06-02T05:58:51.268Z,40
2018-06-02T05:59:11.413Z,40
2018-06-02T05:59:31.576Z,40
2018-06-02T05:59:52.751Z,40
2018-06-02T06:00:12.914Z,40
2018-06-02T06:00:33.078Z,40
2018-06-02T06:00:53.253Z,40
2018-06-02T06:01:13.424Z,40
2018-06-02T06:01:33.588Z,40
2018-06-02T06:01:53.735Z,45
2018-06-02T06:02:13.892Z,45
2018-06-02T06:02:34.051Z,40
2018-06-02T06:02:54.234Z,40
2018-06-02T06:03:14.367Z,40
2018-06-02T06:03:34.530Z,45
2018-06-02T06:03:54.710Z,45
2018-06-02T06:04:14.882Z,45
2018-06-02T06:04:35.053Z,45
2018-06-02T06:04:55.207Z,45
2018-06-02T06:05:15.362Z,45
2018-06-02T06:05:35.521Z,45
2018-06-02T06:05:55.689Z,45
2018-06-02T06:06:15.871Z,45
2018-06-02T06:06:36.033Z,45
2018-06-02T06:06:56.191Z,45
2018-06-02T06:07:16.336Z,45
2018-06-02T06:07:36.466Z,45
2018-06-02T06:07:56.657Z,45
2018-06-02T06:08:16.824Z,45
2018-06-02T06:08:36.978Z,45
2018-06-02T06:08:57.135Z,45
2018-06-02T06:09:17.284Z,45
2018-06-02T06:09:37.440Z,45
2018-06-02T06:09:57.583Z,45
2018-06-02T06:10:17.705Z,45
2018-06-02T06:10:37.869Z,45
2018-06-02T06:10:58.031Z,45
2018-06-02T06:11:18.190Z,45
2018-06-02T06:11:38.329Z,45
2018-06-02T06:11:58.497Z,45
2018-06-02T06:12:18.671Z,45
2018-06-02T06:12:38.840Z,45
2018-06-02T06:12:58.998Z,45
2018-06-02T06:13:19.185Z,45
2018-06-02T06:13:39.330Z,45
2018-06-02T06:13:59.475Z,45
2018-06-02T06:14:19.644Z,40
2018-06-02T06:14:39.861Z,40
2018-06-02T06:15:00.048Z,40
2018-06-02T06:15:20.220Z,40
2018-06-02T06:15:40.374Z,40
2018-06-02T06:16:00.534Z,40
2018-06-02T06:16:20.704Z,40
2018-06-02T06:16:40.849Z,40
2018-06-02T06:17:01.007Z,40
2018-06-02T06:17:21.171Z,40
2018-06-02T06:17:41.332Z,40
2018-06-02T06:18:01.477Z,40
2018-06-02T06:18:21.642Z,40
2018-06-02T06:18:41.804Z,40
2018-06-02T06:19:01.976Z,40
2018-06-02T06:19:22.125Z,40
2018-06-02T06:19:42.295Z,40
2018-06-02T06:20:02.424Z,40
2018-06-02T06:20:22.581Z,40
2018-06-02T06:20:42.758Z,40
2018-06-02T06:21:02.915Z,40
2018-06-02T06:21:23.079Z,40
2018-06-02T06:21:43.226Z,40
2018-06-02T06:22:03.369Z,40
2018-06-02T06:22:23.558Z,40
2018-06-02T06:22:43.755Z,40
2018-06-02T06:23:03.889Z,40
2018-06-02T06:23:24.054Z,40
2018-06-02T06:23:44.229Z,40
2018-06-02T06:24:04.444Z,40
2018-06-02T06:24:24.575Z,40
2018-06-02T06:24:44.720Z,40
2018-06-02T06:25:04.878Z,40
2018-06-02T06:25:25.034Z,40
2018-06-02T06:25:45.226Z,40
2018-06-02T06:26:05.397Z,40
2018-06-02T06:26:25.561Z,40
2018-06-02T06:26:45.756Z,40
2018-06-02T06:27:05.907Z,40
2018-06-02T06:27:26.076Z,40
2018-06-02T06:27:46.231Z,40
2018-06-02T06:28:06.436Z,40
2018-06-02T06:28:26.611Z,40
2018-06-02T06:28:46.773Z,40
2018-06-02T06:29:06.926Z,40
2018-06-02T06:29:27.095Z,40
2018-06-02T06:29:47.258Z,40
2018-06-02T06:30:07.434Z,40
2018-06-02T06:30:27.632Z,40
2018-06-02T06:30:47.793Z,40
2018-06-02T06:31:07.966Z,45
2018-06-02T06:31:28.134Z,45
2018-06-02T06:31:48.301Z,45
2018-06-02T06:32:08.480Z,45
2018-06-02T06:32:28.622Z,45
2018-06-02T06:32:48.803Z,45
2018-06-02T06:33:08.986Z,45
2018-06-02T06:33:29.133Z,45
2018-06-02T06:33:49.295Z,45
2018-06-02T06:34:09.457Z,45
2018-06-02T06:34:29.601Z,45
2018-06-02T06:34:49.755Z,45
2018-06-02T06:35:09.926Z,50
2018-06-02T06:35:30.060Z,50
2018-06-02T06:35:50.256Z,50
2018-06-02T06:36:10.424Z,50
2018-06-02T06:36:30.585Z,50
2018-06-02T06:36:50.729Z,50
2018-06-02T06:37:10.998Z,50
2018-06-02T06:37:31.132Z,50
2018-06-02T06:37:51.313Z,50
2018-06-02T06:38:11.487Z,55
2018-06-02T06:38:31.650Z,50
2018-06-02T06:38:51.830Z,50
2018-06-02T06:39:12.100Z,50
2018-06-02T06:39:32.344Z,50
2018-06-02T06:39:52.535Z,50
2018-06-02T06:40:12.703Z,50
2018-06-02T06:40:32.846Z,50
2018-06-02T06:40:53.004Z,50
2018-06-02T06:41:13.162Z,45
2018-06-02T06:41:33.345Z,45
2018-06-02T06:41:53.496Z,45
2018-06-02T06:42:13.656Z,45
2018-06-02T06:42:33.806Z,45
2018-06-02T06:42:53.978Z,45
2018-06-02T06:43:14.130Z,50
2018-06-02T06:43:34.286Z,50
2018-06-02T06:43:54.457Z,50
2018-06-02T06:44:14.615Z,50
2018-06-02T06:44:35.001Z,50
2018-06-02T06:44:55.255Z,50
2018-06-02T06:45:15.448Z,50
2018-06-02T06:45:35.651Z,50
2018-06-02T06:45:55.774Z,45
2018-06-02T06:46:15.965Z,45
2018-06-02T06:46:36.170Z,45
2018-06-02T06:46:56.287Z,50
2018-06-02T06:47:16.423Z,50
2018-06-02T06:47:36.606Z,50
2018-06-02T06:47:56.801Z,45
2018-06-02T06:48:16.974Z,45
2018-06-02T06:48:37.143Z,45
2018-06-02T06:48:57.300Z,45
2018-06-02T06:49:17.456Z,45
2018-06-02T06:49:37.616Z,45
2018-06-02T06:49:57.769Z,50
2018-06-02T06:50:17.933Z,50
2018-06-02T06:50:38.123Z,50
2018-06-02T06:50:58.282Z,50
2018-06-02T06:51:18.458Z,50
2018-06-02T06:51:38.625Z,50
2018-06-02T06:51:58.781Z,50
2018-06-02T06:52:18.922Z,45
2018-06-02T06:52:39.079Z,45
2018-06-02T06:52:59.215Z,45
2018-06-02T06:53:19.376Z,45
2018-06-02T06:53:39.549Z,45
2018-06-02T06:53:59.701Z,45
2018-06-02T06:54:19.855Z,45
2018-06-02T06:54:40.025Z,45
2018-06-02T06:55:00.181Z,45
2018-06-02T06:55:20.349Z,50
2018-06-02T06:55:40.501Z,50
2018-06-02T06:56:00.667Z,50
2018-06-02T06:56:20.831Z,50
2018-06-02T06:56:41.077Z,50
2018-06-02T06:57:01.242Z,50
2018-06-02T06:57:21.412Z,50
2018-06-02T06:57:41.565Z,50
2018-06-02T06:58:01.722Z,50
2018-06-02T06:58:21.896Z,50
2018-06-02T06:58:42.040Z,50
2018-06-02T06:59:02.215Z,50
2018-06-02T06:59:22.364Z,50
2018-06-02T06:59:42.530Z,50
2018-06-02T07:00:02.690Z,50
2018-06-02T07:00:22.850Z,50
2018-06-02T07:00:43.006Z,50
2018-06-02T07:01:03.165Z,50
2018-06-02T07:01:23.326Z,50
2018-06-02T07:01:43.470Z,50
2018-06-02T07:02:03.633Z,50
2018-06-02T07:02:23.792Z,50
2018-06-02T07:02:43.924Z,50
2018-06-02T07:03:04.076Z,50
2018-06-02T07:03:24.245Z,50
2018-06-02T07:03:44.401Z,50
2018-06-02T07:04:04.543Z,50
2018-06-02T07:04:24.716Z,50
2018-06-02T07:04:44.872Z,50
2018-06-02T07:05:05.031Z,50
2018-06-02T07:05:25.205Z,50
2018-06-02T07:05:45.363Z,50
2018-06-02T07:06:05.537Z,55
2018-06-02T07:06:25.703Z,55
2018-06-02T07:06:45.868Z,55
2018-06-02T07:07:06.060Z,55
2018-06-02T07:07:26.230Z,55
2018-06-02T07:07:46.382Z,55
2018-06-02T07:08:06.520Z,55
2018-06-02T07:08:26.706Z,55
2018-06-02T07:08:46.867Z,55
2018-06-02T07:09:07.036Z,55
2018-06-02T07:09:27.182Z,55
2018-06-02T07:09:47.354Z,60
2018-06-02T07:10:07.512Z,60
2018-06-02T07:10:27.665Z,60
2018-06-02T07:10:47.813Z,60
2018-06-02T07:11:07.980Z,60
2018-06-02T07:11:28.138Z,60
2018-06-02T07:11:48.353Z,65
2018-06-02T07:12:08.485Z,65
2018-06-02T07:12:28.653Z,65
2018-06-02T07:12:48.813Z,65
2018-06-02T07:13:08.976Z,65
2018-06-02T07:13:29.133Z,70
2018-06-02T07:13:49.308Z,65
2018-06-02T07:14:09.452Z,60
2018-06-02T07:14:29.610Z,60
2018-06-02T07:14:49.785Z,55
2018-06-02T07:15:09.990Z,55
2018-06-02T07:15:30.152Z,55
2018-06-02T07:15:50.326Z,50
2018-06-02T07:16:10.502Z,55
2018-06-02T07:16:30.651Z,55
2018-06-02T07:16:50.800Z,55
2018-06-02T07:17:11.001Z,50
2018-06-02T07:17:31.169Z,55
2018-06-02T07:17:51.384Z,55
2018-06-02T07:18:11.486Z,60
2018-06-02T07:18:31.627Z,55
2018-06-02T07:18:51.788Z,60
2018-06-02T07:19:11.942Z,60
2018-06-02T07:19:32.096Z,60
2018-06-02T07:19:52.250Z,55
2018-06-02T07:20:12.430Z,60
2018-06-02T07:20:32.622Z,60
2018-06-02T07:20:52.785Z,60
2018-06-02T07:21:12.957Z,60
2018-06-02T07:21:33.116Z,60
2018-06-02T07:21:53.274Z,60
2018-06-02T07:22:13.428Z,60
2018-06-02T07:22:33.598Z,60
2018-06-02T07:22:53.758Z,60
2018-06-02T07:23:13.912Z,60
2018-06-02T07:23:34.073Z,60
2018-06-02T07:23:54.209Z,60
2018-06-02T07:24:14.371Z,60
2018-06-02T07:24:34.540Z,60
2018-06-02T07:24:54.725Z,60
2018-06-02T07:25:14.866Z,60
2018-06-02T07:25:35.039Z,60
2018-06-02T07:25:55.206Z,65
2018-06-02T07:26:15.380Z,65
2018-06-02T07:26:35.542Z,65
2018-06-02T07:26:55.883Z,75
2018-06-02T07:27:16.043Z,70
2018-06-02T07:27:36.273Z,70
2018-06-02T07:27:56.519Z,65
2018-06-02T07:28:16.686Z,65
2018-06-02T07:28:36.873Z,70
2018-06-02T07:28:57.115Z,70
2018-06-02T07:29:17.302Z,70
2018-06-02T07:29:37.493Z,65
2018-06-02T07:29:57.617Z,65
2018-06-02T07:30:17.802Z,65
2018-06-02T07:30:37.971Z,65
2018-06-02T07:30:58.152Z,65
2018-06-02T07:31:18.292Z,65
2018-06-02T07:31:38.457Z,65
2018-06-02T07:31:58.617Z,65
2018-06-02T07:32:18.767Z,65
2018-06-02T07:32:38.939Z,60
2018-06-02T07:32:59.108Z,60
2018-06-02T07:33:19.277Z,60
2018-06-02T07:33:39.424Z,60
2018-06-02T07:33:59.597Z,55
2018-06-02T07:34:19.759Z,55
2018-06-02T07:34:39.935Z,60
2018-06-02T07:35:00.110Z,60
2018-06-02T07:35:20.287Z,60
2018-06-02T07:35:40.452Z,60
2018-06-02T07:36:00.672Z,55
2018-06-02T07:36:20.810Z,60
2018-06-02T07:36:40.959Z,60
2018-06-02T07:37:01.133Z,55
2018-06-02T07:37:21.351Z,55
2018-06-02T07:37:41.513Z,55
2018-06-02T07:38:01.713Z,55
2018-06-02T07:38:21.872Z,65
2018-06-02T07:38:42.014Z,65
2018-06-02T07:39:02.215Z,65
2018-06-02T07:39:22.380Z,70
2018-06-02T07:39:42.562Z,65
2018-06-02T07:40:02.780Z,60
2018-06-02T07:40:22.945Z,55
2018-06-02T07:40:43.095Z,65
2018-06-02T07:41:03.269Z,65
2018-06-02T07:41:23.526Z,65
2018-06-02T07:41:43.681Z,60
2018-06-02T07:42:03.882Z,60
2018-06-02T07:42:24.041Z,65
2018-06-02T07:42:44.214Z,65
2018-06-02T07:43:04.375Z,65
2018-06-02T07:43:24.540Z,65
2018-06-02T07:43:44.712Z,65
2018-06-02T07:44:04.878Z,65
2018-06-02T07:44:25.041Z,60
2018-06-02T07:44:45.191Z,60
2018-06-02T07:45:05.377Z,55
2018-06-02T07:45:25.610Z,60
2018-06-02T07:45:45.805Z,60
2018-06-02T07:46:06.084Z,65
2018-06-02T07:46:26.244Z,70
2018-06-02T07:46:46.410Z,70
2018-06-02T07:47:06.677Z,70
2018-06-02T07:47:26.877Z,65
2018-06-02T07:47:47.074Z,65
2018-06-02T07:48:07.347Z,75
2018-06-02T07:48:27.534Z,75
2018-06-02T07:48:47.706Z,75
2018-06-02T07:49:07.890Z,70
2018-06-02T07:49:28.079Z,70
2018-06-02T07:49:48.330Z,75
2018-06-02T07:50:08.633Z,80
2018-06-02T07:50:28.843Z,75
2018-06-02T07:50:49.016Z,75
2018-06-02T07:51:09.178Z,65
2018-06-02T07:51:29.418Z,60
2018-06-02T07:51:49.560Z,60
2018-06-02T07:52:09.736Z,60
2018-06-02T07:52:29.951Z,60
2018-06-02T07:52:50.110Z,65
2018-06-02T07:53:10.306Z,70
2018-06-02T07:53:30.481Z,70
2018-06-02T07:53:50.624Z,65
2018-06-02T07:54:10.785Z,60
2018-06-02T07:54:30.926Z,55
2018-06-02T07:54:51.148Z,55
2018-06-02T07:55:11.341Z,50
2018-06-02T07:55:31.524Z,55
2018-06-02T07:55:51.710Z,50
2018-06-02T07:56:11.868Z,50
2018-06-02T07:56:32.089Z,55
2018-06-02T07:56:52.251Z,55
2018-06-02T07:57:12.462Z,55
2018-06-02T07:57:33.471Z,60
2018-06-02T07:57:53.727Z,65
2018-06-02T07:58:13.975Z,70
2018-06-02T07:58:34.128Z,65
2018-06-02T07:58:54.330Z,65
2018-06-02T07:59:14.472Z,60
2018-06-02T07:59:35.234Z,60
2018-06-02T07:59:55.466Z,60
2018-06-02T08:00:15.636Z,55
2018-06-02T08:00:35.811Z,60
2018-06-02T08:00:56.055Z,65
2018-06-02T08:01:16.195Z,70
2018-06-02T08:01:36.375Z,65
2018-06-02T08:01:56.540Z,65
2018-06-02T08:02:16.695Z,60
2018-06-02T08:02:36.859Z,65
2018-06-02T08:02:57.020Z,65
2018-06-02T08:03:17.215Z,65
2018-06-02T08:03:37.387Z,65
2018-06-02T08:03:57.545Z,60
2018-06-02T08:04:17.680Z,55
2018-06-02T08:04:37.830Z,55
2018-06-02T08:04:58.016Z,60
2018-06-02T08:05:18.282Z,65
2018-06-02T08:05:38.458Z,65
2018-06-02T08:05:58.635Z,65
2018-06-02T08:06:18.942Z,60
2018-06-02T08:06:39.730Z,55
2018-06-02T08:06:59.904Z,55
2018-06-02T08:07:20.144Z,60
2018-06-02T08:07:40.329Z,55
2018-06-02T08:08:00.493Z,55
2018-06-02T08:08:20.687Z,55
2018-06-02T08:08:40.963Z,50
2018-06-02T08:09:01.085Z,45
2018-06-02T08:09:21.475Z,45
2018-06-02T08:09:41.640Z,45
2018-06-02T08:10:01.807Z,45
2018-06-02T08:10:21.981Z,45
2018-06-02T08:10:42.136Z,45
2018-06-02T08:11:02.298Z,45
2018-06-02T08:11:22.505Z,50
2018-06-02T08:11:42.832Z,50
2018-06-02T08:12:03.000Z,50
2018-06-02T08:12:23.197Z,45
2018-06-02T08:12:43.331Z,45
2018-06-02T08:13:03.488Z,40
2018-06-02T08:13:23.711Z,50
2018-06-02T08:13:43.875Z,50
2018-06-02T08:14:04.006Z,50
2018-06-02T08:14:24.153Z,50
2018-06-02T08:14:44.352Z,50
2018-06-02T08:15:04.520Z,45
2018-06-02T08:15:24.708Z,40
2018-06-02T08:15:44.919Z,45
2018-06-02T08:16:05.330Z,45
2018-06-02T08:16:25.492Z,50
2018-06-02T08:16:45.673Z,50
2018-06-02T08:17:05.829Z,45
2018-06-02T08:17:25.992Z,50
2018-06-02T08:17:46.143Z,55
2018-06-02T08:18:06.428Z,55
2018-06-02T08:18:26.617Z,50
2018-06-02T08:18:46.840Z,50
2018-06-02T08:19:06.984Z,45
2018-06-02T08:19:27.125Z,45
2018-06-02T08:19:47.309Z,45
2018-06-02T08:20:07.533Z,45
2018-06-02T08:20:27.691Z,55
2018-06-02T08:20:47.866Z,60
2018-06-02T08:21:08.061Z,60
2018-06-02T08:21:28.233Z,55
2018-06-02T08:21:48.405Z,55
2018-06-02T08:22:08.569Z,50
2018-06-02T08:22:28.723Z,50
2018-06-02T08:22:48.919Z,55
2018-06-02T08:23:09.112Z,50
2018-06-02T08:23:29.302Z,50
2018-06-02T08:23:49.478Z,55
2018-06-02T08:24:09.645Z,55
2018-06-02T08:24:29.768Z,60
2018-06-02T08:24:49.926Z,60
2018-06-02T08:25:10.088Z,60
2018-06-02T08:25:30.270Z,65
2018-06-02T08:25:50.445Z,65
2018-06-02T08:26:10.616Z,60
2018-06-02T08:26:30.928Z,60
2018-06-02T08:26:51.040Z,60
2018-06-02T08:27:11.223Z,60
2018-06-02T08:27:31.399Z,60
2018-06-02T08:27:51.561Z,60
2018-06-02T08:28:11.711Z,55
2018-06-02T08:28:31.868Z,55
2018-06-02T08:28:52.029Z,55
2018-06-02T08:29:12.230Z,50
2018-06-02T08:29:32.507Z,50
2018-06-02T08:29:52.681Z,50
2018-06-02T08:30:12.841Z,55
2018-06-02T08:30:33.022Z,50
2018-06-02T08:30:53.193Z,50
2018-06-02T08:31:13.367Z,50
2018-06-02T08:31:33.720Z,50
2018-06-02T08:31:53.879Z,55
2018-06-02T08:32:14.081Z,55
2018-06-02T08:32:34.243Z,55
2018-06-02T08:32:54.453Z,60
2018-06-02T08:33:14.613Z,60
2018-06-02T08:33:34.790Z,65
2018-06-02T08:33:55.015Z,65
2018-06-02T08:34:15.203Z,65
2018-06-02T08:34:35.360Z,60
2018-06-02T08:34:55.528Z,55
2018-06-02T08:35:15.812Z,55
2018-06-02T08:35:35.991Z,55
2018-06-02T08:35:57.004Z,55
2018-06-02T08:36:17.183Z,55
2018-06-02T08:36:37.376Z,55
2018-06-02T08:36:57.521Z,55
2018-06-02T08:37:17.692Z,55
2018-06-02T08:37:37.833Z,55
2018-06-02T08:37:58.003Z,60
2018-06-02T08:38:18.163Z,60
2018-06-02T08:38:38.338Z,65
2018-06-02T08:38:58.573Z,60
2018-06-02T08:39:18.691Z,65
2018-06-02T08:39:38.862Z,65
2018-06-02T08:39:59.036Z,65
2018-06-02T08:40:19.233Z,65
2018-06-02T08:40:39.405Z,60
2018-06-02T08:40:59.578Z,65
2018-06-02T08:41:19.745Z,65
2018-06-02T08:41:39.934Z,60
2018-06-02T08:42:00.049Z,55
2018-06-02T08:42:20.207Z,55
2018-06-02T08:42:40.377Z,60
2018-06-02T08:43:00.531Z,60
2018-06-02T08:43:20.697Z,60
2018-06-02T08:43:40.873Z,65
2018-06-02T08:44:01.049Z,60
2018-06-02T08:44:21.214Z,60
2018-06-02T08:44:41.402Z,60
2018-06-02T08:45:01.564Z,60
2018-06-02T08:45:21.742Z,60
2018-06-02T08:45:41.894Z,60
2018-06-02T08:46:02.089Z,60
2018-06-02T08:46:22.343Z,55
2018-06-02T08:46:42.464Z,55
2018-06-02T08:47:02.629Z,50
2018-06-02T08:47:22.780Z,50
2018-06-02T08:47:42.954Z,50
2018-06-02T08:48:03.112Z,60
2018-06-02T08:48:23.465Z,55
2018-06-02T08:48:43.690Z,55
2018-06-02T08:49:03.927Z,50
2018-06-02T08:49:24.124Z,50
2018-06-02T08:49:44.310Z,55
2018-06-02T08:50:04.462Z,55
2018-06-02T08:50:24.611Z,60
2018-06-02T08:50:44.852Z,60
2018-06-02T08:51:05.048Z,60
2018-06-02T08:51:25.204Z,60
2018-06-02T08:51:45.364Z,60
2018-06-02T08:52:05.519Z,55
2018-06-02T08:52:25.683Z,55
2018-06-02T08:52:45.843Z,55
2018-06-02T08:53:06.015Z,55
2018-06-02T08:53:26.185Z,60
2018-06-02T08:53:46.351Z,60
2018-06-02T08:54:06.535Z,60
2018-06-02T08:54:26.776Z,55
2018-06-02T08:54:46.904Z,60
2018-06-02T08:55:07.127Z,60
2018-06-02T08:55:27.280Z,55
2018-06-02T08:55:47.452Z,60
2018-06-02T08:56:07.608Z,55
2018-06-02T08:56:27.760Z,60
2018-06-02T08:56:47.920Z,55
2018-06-02T08:57:08.082Z,55
2018-06-02T08:57:28.223Z,50
2018-06-02T08:57:48.403Z,45
2018-06-02T08:58:08.608Z,45
2018-06-02T08:58:28.754Z,50
2018-06-02T08:58:48.934Z,50
2018-06-02T08:59:09.068Z,55
2018-06-02T08:59:29.266Z,60
2018-06-02T08:59:49.450Z,60
2018-06-02T09:00:09.648Z,55
2018-06-02T09:00:29.924Z,55
2018-06-02T09:00:50.149Z,55
2018-06-02T09:01:10.426Z,50
2018-06-02T09:01:30.602Z,45
2018-06-02T09:01:50.812Z,45
2018-06-02T09:02:10.960Z,50
2018-06-02T09:02:31.136Z,50
2018-06-02T09:02:51.283Z,50
2018-06-02T09:03:11.410Z,50
2018-06-02T09:03:31.559Z,45
2018-06-02T09:03:51.703Z,45
2018-06-02T09:04:11.888Z,45
2018-06-02T09:04:32.040Z,50
2018-06-02T09:04:52.303Z,55
2018-06-02T09:05:12.449Z,65
2018-06-02T09:05:32.641Z,70
2018-06-02T09:05:52.836Z,75
2018-06-02T09:06:13.002Z,75
2018-06-02T09:06:33.241Z,80
2018-06-02T09:06:53.369Z,85
2018-06-02T09:07:13.612Z,80
2018-06-02T09:07:33.777Z,80
2018-06-02T09:07:53.912Z,80
2018-06-02T09:08:14.209Z,80
2018-06-02T09:08:34.392Z,80
2018-06-02T09:08:54.604Z,75
2018-06-02T09:09:14.751Z,70
2018-06-02T09:09:35.062Z,70
2018-06-02T09:09:55.220Z,70
2018-06-02T09:10:15.374Z,70
2018-06-02T09:10:35.539Z,65
2018-06-02T09:10:55.717Z,65
2018-06-02T09:11:15.878Z,55
2018-06-02T09:11:36.043Z,55
2018-06-02T09:11:56.192Z,55
2018-06-02T09:12:16.355Z,55
2018-06-02T09:12:36.500Z,50
2018-06-02T09:12:56.692Z,50
2018-06-02T09:13:16.851Z,55
2018-06-02T09:13:37.016Z,55
2018-06-02T09:13:57.173Z,50
2018-06-02T09:14:17.336Z,55
2018-06-02T09:14:37.505Z,50
2018-06-02T09:14:57.656Z,50
2018-06-02T09:15:17.812Z,55
2018-06-02T09:15:38.018Z,55
2018-06-02T09:15:58.150Z,60
2018-06-02T09:16:18.284Z,70
2018-06-02T09:16:38.444Z,70
2018-06-02T09:16:58.605Z,75
2018-06-02T09:17:18.780Z,75
2018-06-02T09:17:38.940Z,75
2018-06-02T09:17:59.116Z,75
2018-06-02T09:18:19.290Z,75
2018-06-02T09:18:39.456Z,75
2018-06-02T09:18:59.592Z,75
2018-06-02T09:19:19.768Z,70
2018-06-02T09:19:39.922Z,70
2018-06-02T09:20:00.074Z,70
2018-06-02T09:20:20.224Z,70
2018-06-02T09:20:40.465Z,70
2018-06-02T09:21:00.616Z,70
2018-06-02T09:21:20.771Z,70
2018-06-02T09:21:41.089Z,75
2018-06-02T09:22:01.248Z,75
2018-06-02T09:22:21.413Z,75
2018-06-02T09:22:41.600Z,75
2018-06-02T09:23:01.787Z,75
2018-06-02T09:23:21.995Z,75
2018-06-02T09:23:42.185Z,75
2018-06-02T09:24:02.426Z,75
2018-06-02T09:24:22.558Z,75
2018-06-02T09:24:42.735Z,70
2018-06-02T09:25:02.906Z,70
2018-06-02T09:25:23.038Z,70
2018-06-02T09:25:43.375Z,75
2018-06-02T09:26:03.703Z,75
2018-06-02T09:26:23.905Z,80
2018-06-02T09:26:44.110Z,80
2018-06-02T09:27:04.325Z,80
2018-06-02T09:27:24.461Z,85
2018-06-02T09:27:44.620Z,80
2018-06-02T09:28:04.799Z,75
2018-06-02T09:28:26.537Z,75
2018-06-02T09:28:46.719Z,75
2018-06-02T09:29:06.895Z,75
2018-06-02T09:29:27.050Z,75
2018-06-02T09:29:48.287Z,75
2018-06-02T09:30:08.486Z,75